Mars Hill, North Carolina
Current Conditions -  °F | °C
As of 6:09 PM on Tuesday 27 Jan 2015 (Local Time) from KAVL Reporting Station
Overcast Overcast  
Wind Chill: 21°   Ceiling: 2800
Heat Index: 31°   Visibility: 10mi
Dew Point: 23°   Wind: 14mph
Humidity: 72%   Direction: 350°N
Pressure: 29.94"   Gusts: 23mph
Location:  35.83°N, 82.55°W
Report Text: KAVL 272309Z 35012G20KT 10SM OVC028 M01/M05 A2994 RMK AO2 T10061050
Loading
Personal Weather Stations






























Interactive Weather Map New forecast layout! Learn more

10-Day Weather Forecast

Advertisements
Track Severe Weather on mobile